sensor_id;sensor_type;location;lat;lon;timestamp;pressure;altitude;pressure_sealevel;temperature;humidity
15444;BME280;7822;48.146;11.576;2022-09-09T00:09:16;95243.84;;;19.86;58.37
15444;BME280;7822;48.146;11.576;2022-09-09T00:11:48;95237.09;;;19.69;58.81
15444;BME280;7822;48.146;11.576;2022-09-09T00:14:23;95235.53;;;19.60;59.08
15444;BME280;7822;48.146;11.576;2022-09-09T00:16:57;95227.81;;;19.58;59.21
15444;BME280;7822;48.146;11.576;2022-09-09T00:19:33;95235.19;;;19.63;59.24
15444;BME280;7822;48.146;11.576;2022-09-09T00:22:15;95226.81;;;19.59;59.26
15444;BME280;7822;48.146;11.576;2022-09-09T00:24:46;95226.47;;;19.62;59.29
15444;BME280;7822;48.146;11.576;2022-09-09T00:27:21;95226.09;;;19.65;59.27
15444;BME280;7822;48.146;11.576;2022-09-09T00:29:53;95222.78;;;19.71;59.02
15444;BME280;7822;48.146;11.576;2022-09-09T00:32:28;95218.50;;;19.85;58.54
15444;BME280;7822;48.146;11.576;2022-09-09T00:34:59;95216.88;;;19.84;58.62
15444;BME280;7822;48.146;11.576;2022-09-09T00:37:29;95218.41;;;19.78;58.10
15444;BME280;7822;48.146;11.576;2022-09-09T00:40:04;95217.41;;;19.79;58.65
15444;BME280;7822;48.146;11.576;2022-09-09T00:42:40;95226.28;;;19.78;58.77
15444;BME280;7822;48.146;11.576;2022-09-09T00:45:35;95229.47;;;19.74;58.90
15444;BME280;7822;48.146;11.576;2022-09-09T00:48:09;95224.59;;;19.85;58.57
15444;BME280;7822;48.146;11.576;2022-09-09T00:50:44;95234.28;;;19.85;58.55
15444;BME280;7822;48.146;11.576;2022-09-09T00:53:27;95228.34;;;19.91;58.56
15444;BME280;7822;48.146;11.576;2022-09-09T00:56:06;95231.84;;;20.21;57.61
15444;BME280;7822;48.146;11.576;2022-09-09T00:58:36;95227.84;;;20.39;56.87
15444;BME280;7822;48.146;11.576;2022-09-09T01:01:06;95232.00;;;20.34;57.14
15444;BME280;7822;48.146;11.576;2022-09-09T01:03:37;95230.38;;;20.47;56.76
15444;BME280;7822;48.146;11.576;2022-09-09T01:06:14;95231.00;;;20.49;56.79
15444;BME280;7822;48.146;11.576;2022-09-09T01:08:59;95231.19;;;20.48;57.04
15444;BME280;7822;48.146;11.576;2022-09-09T01:11:36;95232.94;;;20.41;57.08
15444;BME280;7822;48.146;11.576;2022-09-09T01:14:25;95226.94;;;20.32;57.36
15444;BME280;7822;48.146;11.576;2022-09-09T01:17:01;95239.56;;;20.22;57.66
15444;BME280;7822;48.146;11.576;2022-09-09T01:19:45;95229.44;;;20.11;58.10
15444;BME280;7822;48.146;11.576;2022-09-09T01:22:22;95229.34;;;20.05;58.46
15444;BME280;7822;48.146;11.576;2022-09-09T01:25:12;95228.63;;;20.11;58.71
15444;BME280;7822;48.146;11.576;2022-09-09T01:27:46;95229.44;;;20.11;58.63
15444;BME280;7822;48.146;11.576;2022-09-09T01:30:17;95228.88;;;20.01;58.78
15444;BME280;7822;48.146;11.576;2022-09-09T01:32:47;95227.25;;;20.00;58.79
15444;BME280;7822;48.146;11.576;2022-09-09T01:35:27;95225.25;;;20.02;58.69
15444;BME280;7822;48.146;11.576;2022-09-09T01:37:57;95231.13;;;19.89;58.64
15444;BME280;7822;48.146;11.576;2022-09-09T01:40:25;95230.66;;;19.71;59.28
15444;BME280;7822;48.146;11.576;2022-09-09T01:42:55;95221.47;;;19.67;59.63
15444;BME280;7822;48.146;11.576;2022-09-09T01:45:23;95222.78;;;19.86;59.08
15444;BME280;7822;48.146;11.576;2022-09-09T01:47:52;95241.84;;;20.03;58.85
15444;BME280;7822;48.146;11.576;2022-09-09T01:50:20;95230.97;;;20.06;58.17
15444;BME280;7822;48.146;11.576;2022-09-09T01:52:51;95227.59;;;19.97;58.32
15444;BME280;7822;48.146;11.576;2022-09-09T01:55:26;95225.63;;;19.99;58.72
15444;BME280;7822;48.146;11.576;2022-09-09T01:58:06;95229.34;;;20.05;58.64
15444;BME280;7822;48.146;11.576;2022-09-09T02:00:40;95227.41;;;19.98;58.68
15444;BME280;7822;48.146;11.576;2022-09-09T02:03:16;95220.25;;;19.92;59.06
15444;BME280;7822;48.146;11.576;2022-09-09T02:05:53;95217.97;;;19.89;58.93
15444;BME280;7822;48.146;11.576;2022-09-09T02:08:27;95228.69;;;19.88;59.29
15444;BME280;7822;48.146;11.576;2022-09-09T02:11:00;95222.59;;;19.87;59.31
15444;BME280;7822;48.146;11.576;2022-09-09T02:13:32;95224.06;;;19.90;59.40
15444;BME280;7822;48.146;11.576;2022-09-09T02:16:07;95221.06;;;19.93;59.32
15444;BME280;7822;48.146;11.576;2022-09-09T02:18:39;95223.53;;;19.94;59.08
15444;BME280;7822;48.146;11.576;2022-09-09T02:21:10;95210.69;;;19.91;59.38
15444;BME280;7822;48.146;11.576;2022-09-09T02:23:42;95215.06;;;19.84;59.07
15444;BME280;7822;48.146;11.576;2022-09-09T02:26:12;95208.97;;;19.84;59.56
15444;BME280;7822;48.146;11.576;2022-09-09T02:28:48;95215.16;;;19.91;59.36
15444;BME280;7822;48.146;11.576;2022-09-09T02:31:19;95218.59;;;19.77;59.14
15444;BME280;7822;48.146;11.576;2022-09-09T02:33:53;95216.16;;;19.75;59.59
15444;BME280;7822;48.146;11.576;2022-09-09T02:36:25;95212.03;;;19.73;59.61
15444;BME280;7822;48.146;11.576;2022-09-09T02:38:56;95209.94;;;19.68;59.75
15444;BME280;7822;48.146;11.576;2022-09-09T02:41:27;95204.09;;;19.95;59.36
15444;BME280;7822;48.146;11.576;2022-09-09T02:43:59;95206.00;;;20.02;58.99
15444;BME280;7822;48.146;11.576;2022-09-09T02:46:44;95212.25;;;20.01;59.01
15444;BME280;7822;48.146;11.576;2022-09-09T02:49:19;95207.38;;;19.98;59.24
15444;BME280;7822;48.146;11.576;2022-09-09T02:51:56;95210.16;;;19.81;59.79
15444;BME280;7822;48.146;11.576;2022-09-09T02:54:30;95209.06;;;19.76;59.80
15444;BME280;7822;48.146;11.576;2022-09-09T02:57:02;95206.88;;;19.65;60.35
15444;BME280;7822;48.146;11.576;2022-09-09T02:59:33;95215.66;;;19.57;60.63
15444;BME280;7822;48.146;11.576;2022-09-09T03:02:00;95216.00;;;19.54;60.59
15444;BME280;7822;48.146;11.576;2022-09-09T03:04:29;95210.91;;;19.53;60.76
15444;BME280;7822;48.146;11.576;2022-09-09T03:06:58;95197.56;;;19.54;61.02
15444;BME280;7822;48.146;11.576;2022-09-09T03:09:26;95210.28;;;19.51;61.02
15444;BME280;7822;48.146;11.576;2022-09-09T03:11:53;95203.19;;;19.51;61.04
15444;BME280;7822;48.146;11.576;2022-09-09T03:14:22;95207.81;;;19.49;60.89
15444;BME280;7822;48.146;11.576;2022-09-09T03:16:53;95202.28;;;19.59;60.64
15444;BME280;7822;48.146;11.576;2022-09-09T03:19:22;95203.88;;;19.68;60.60
15444;BME280;7822;48.146;11.576;2022-09-09T03:21:50;95206.03;;;19.64;60.76
15444;BME280;7822;48.146;11.576;2022-09-09T03:24:18;95200.19;;;19.54;61.02
15444;BME280;7822;48.146;11.576;2022-09-09T03:26:46;95205.28;;;19.33;61.65
15444;BME280;7822;48.146;11.576;2022-09-09T03:29:13;95198.38;;;19.32;61.91
15444;BME280;7822;48.146;11.576;2022-09-09T03:31:41;95205.13;;;19.35;61.74
15444;BME280;7822;48.146;11.576;2022-09-09T03:34:11;95206.78;;;19.36;61.98
15444;BME280;7822;48.146;11.576;2022-09-09T03:36:39;95196.47;;;19.26;62.35
15444;BME280;7822;48.146;11.576;2022-09-09T03:39:07;95197.81;;;19.22;62.46
15444;BME280;7822;48.146;11.576;2022-09-09T03:41:35;95199.91;;;19.27;62.39
15444;BME280;7822;48.146;11.576;2022-09-09T03:44:03;95199.28;;;19.24;62.38
15444;BME280;7822;48.146;11.576;2022-09-09T03:46:31;95200.63;;;19.20;62.54
15444;BME280;7822;48.146;11.576;2022-09-09T03:49:00;95201.72;;;19.03;63.15
15444;BME280;7822;48.146;11.576;2022-09-09T03:51:29;95196.94;;;19.07;62.78
15444;BME280;7822;48.146;11.576;2022-09-09T03:53:56;95191.63;;;19.15;62.82
15444;BME280;7822;48.146;11.576;2022-09-09T03:56:25;95193.19;;;19.24;62.47
15444;BME280;7822;48.146;11.576;2022-09-09T03:58:52;95201.72;;;19.26;62.65
15444;BME280;7822;48.146;11.576;2022-09-09T04:01:20;95191.91;;;19.20;62.75
15444;BME280;7822;48.146;11.576;2022-09-09T04:03:48;95194.25;;;19.15;62.87
15444;BME280;7822;48.146;11.576;2022-09-09T04:06:16;95188.22;;;19.06;63.25
15444;BME280;7822;48.146;11.576;2022-09-09T04:08:45;95187.59;;;19.04;63.46
15444;BME280;7822;48.146;11.576;2022-09-09T04:11:15;95183.97;;;19.05;63.58
15444;BME280;7822;48.146;11.576;2022-09-09T04:13:42;95191.19;;;19.03;63.46
15444;BME280;7822;48.146;11.576;2022-09-09T04:16:11;95185.47;;;19.00;63.75
15444;BME280;7822;48.146;11.576;2022-09-09T04:18:39;95182.22;;;18.98;63.61
15444;BME280;7822;48.146;11.576;2022-09-09T04:21:09;95178.34;;;19.08;63.31
15444;BME280;7822;48.146;11.576;2022-09-09T04:23:38;95177.00;;;19.12;63.18
15444;BME280;7822;48.146;11.576;2022-09-09T04:26:08;95177.00;;;19.12;62.75
15444;BME280;7822;48.146;11.576;2022-09-09T04:28:36;95179.59;;;19.20;62.94
15444;BME280;7822;48.146;11.576;2022-09-09T04:31:06;95164.78;;;19.19;62.73
15444;BME280;7822;48.146;11.576;2022-09-09T04:33:34;95163.06;;;19.12;62.41
15444;BME280;7822;48.146;11.576;2022-09-09T04:36:06;95160.44;;;19.12;62.91
15444;BME280;7822;48.146;11.576;2022-09-09T04:38:34;95167.78;;;19.16;62.83
15444;BME280;7822;48.146;11.576;2022-09-09T04:41:02;95159.28;;;19.29;62.36
15444;BME280;7822;48.146;11.576;2022-09-09T04:43:31;95164.69;;;19.36;62.37
15444;BME280;7822;48.146;11.576;2022-09-09T04:45:58;95178.97;;;19.33;62.25
15444;BME280;7822;48.146;11.576;2022-09-09T04:48:26;95177.50;;;19.31;62.17
15444;BME280;7822;48.146;11.576;2022-09-09T04:50:55;95174.47;;;19.19;62.58
15444;BME280;7822;48.146;11.576;2022-09-09T04:53:23;95163.31;;;19.17;62.27
15444;BME280;7822;48.146;11.576;2022-09-09T04:55:52;95163.81;;;19.20;62.69
15444;BME280;7822;48.146;11.576;2022-09-09T04:58:19;95155.50;;;19.32;62.54
15444;BME280;7822;48.146;11.576;2022-09-09T05:00:50;95161.22;;;19.12;62.31
15444;BME280;7822;48.146;11.576;2022-09-09T05:03:18;95163.16;;;19.18;62.87
15444;BME280;7822;48.146;11.576;2022-09-09T05:05:46;95159.88;;;19.39;62.42
15444;BME280;7822;48.146;11.576;2022-09-09T05:08:13;95160.50;;;19.41;62.21
15444;BME280;7822;48.146;11.576;2022-09-09T05:10:41;95168.94;;;19.37;62.30
15444;BME280;7822;48.146;11.576;2022-09-09T05:13:09;95177.66;;;19.37;62.26
15444;BME280;7822;48.146;11.576;2022-09-09T05:15:37;95164.84;;;19.34;62.52
15444;BME280;7822;48.146;11.576;2022-09-09T05:18:07;95184.91;;;19.35;62.35
15444;BME280;7822;48.146;11.576;2022-09-09T05:20:34;95180.34;;;19.29;62.77
15444;BME280;7822;48.146;11.576;2022-09-09T05:23:02;95178.41;;;19.23;62.84
15444;BME280;7822;48.146;11.576;2022-09-09T05:25:30;95179.28;;;19.15;62.42
15444;BME280;7822;48.146;11.576;2022-09-09T05:27:58;95185.13;;;19.25;62.65
15444;BME280;7822;48.146;11.576;2022-09-09T05:30:26;95184.47;;;19.23;62.67
15444;BME280;7822;48.146;11.576;2022-09-09T05:32:55;95184.34;;;19.17;62.64
15444;BME280;7822;48.146;11.576;2022-09-09T05:35:25;95195.25;;;19.14;62.89
15444;BME280;7822;48.146;11.576;2022-09-09T05:37:53;95186.34;;;19.15;62.83
15444;BME280;7822;48.146;11.576;2022-09-09T05:40:22;95188.34;;;19.13;62.27
15444;BME280;7822;48.146;11.576;2022-09-09T05:42:49;95191.91;;;19.20;62.32
15444;BME280;7822;48.146;11.576;2022-09-09T05:45:17;95184.13;;;19.27;62.31
15444;BME280;7822;48.146;11.576;2022-09-09T05:47:51;95181.50;;;19.27;62.11
15444;BME280;7822;48.146;11.576;2022-09-09T05:50:19;95195.09;;;19.30;62.09
15444;BME280;7822;48.146;11.576;2022-09-09T05:52:48;95187.69;;;19.34;61.85
15444;BME280;7822;48.146;11.576;2022-09-09T05:55:17;95195.59;;;19.34;61.88
15444;BME280;7822;48.146;11.576;2022-09-09T05:57:48;95189.69;;;19.32;61.62
15444;BME280;7822;48.146;11.576;2022-09-09T06:00:18;95196.47;;;19.26;61.80
15444;BME280;7822;48.146;11.576;2022-09-09T06:02:50;95185.94;;;19.26;61.73
15444;BME280;7822;48.146;11.576;2022-09-09T06:05:19;95205.19;;;19.27;61.79
15444;BME280;7822;48.146;11.576;2022-09-09T06:07:53;95210.44;;;19.27;61.91
15444;BME280;7822;48.146;11.576;2022-09-09T06:10:21;95211.25;;;19.27;61.69
15444;BME280;7822;48.146;11.576;2022-09-09T06:12:52;95215.34;;;19.07;62.06
15444;BME280;7822;48.146;11.576;2022-09-09T06:15:20;95212.44;;;18.71;63.42
15444;BME280;7822;48.146;11.576;2022-09-09T06:17:54;95202.81;;;18.56;64.11
15444;BME280;7822;48.146;11.576;2022-09-09T06:20:21;95202.81;;;18.56;64.34
15444;BME280;7822;48.146;11.576;2022-09-09T06:22:49;95198.97;;;18.66;64.38
15444;BME280;7822;48.146;11.576;2022-09-09T06:25:23;95207.00;;;18.73;64.15
15444;BME280;7822;48.146;11.576;2022-09-09T06:27:51;95210.00;;;18.70;64.07
15444;BME280;7822;48.146;11.576;2022-09-09T06:30:19;95205.94;;;18.59;64.63
15444;BME280;7822;48.146;11.576;2022-09-09T06:32:47;95200.25;;;18.47;65.14
15444;BME280;7822;48.146;11.576;2022-09-09T06:35:16;95198.94;;;18.35;65.35
15444;BME280;7822;48.146;11.576;2022-09-09T06:37:44;95197.63;;;18.39;65.75
15444;BME280;7822;48.146;11.576;2022-09-09T06:40:15;95205.13;;;18.50;65.29
15444;BME280;7822;48.146;11.576;2022-09-09T06:42:44;95202.44;;;18.67;64.83
15444;BME280;7822;48.146;11.576;2022-09-09T06:45:11;95208.66;;;18.74;64.30
15444;BME280;7822;48.146;11.576;2022-09-09T06:47:39;95204.16;;;18.82;64.31
15444;BME280;7822;48.146;11.576;2022-09-09T06:50:08;95207.50;;;18.68;64.44
15444;BME280;7822;48.146;11.576;2022-09-09T06:52:36;95212.25;;;18.73;64.80
15444;BME280;7822;48.146;11.576;2022-09-09T06:55:05;95217.00;;;18.77;64.75
15444;BME280;7822;48.146;11.576;2022-09-09T06:57:33;95212.38;;;18.79;64.80
15444;BME280;7822;48.146;11.576;2022-09-09T07:00:06;95219.41;;;18.87;64.56
15444;BME280;7822;48.146;11.576;2022-09-09T07:02:34;95216.25;;;18.91;64.06
15444;BME280;7822;48.146;11.576;2022-09-09T07:05:06;95215.41;;;18.99;64.06
15444;BME280;7822;48.146;11.576;2022-09-09T07:07:34;95211.19;;;18.90;64.33
15444;BME280;7822;48.146;11.576;2022-09-09T07:10:03;95214.50;;;18.84;64.43
15444;BME280;7822;48.146;11.576;2022-09-09T07:12:31;95216.31;;;18.83;64.58
15444;BME280;7822;48.146;11.576;2022-09-09T07:14:58;95226.84;;;18.83;64.75
15444;BME280;7822;48.146;11.576;2022-09-09T07:17:28;95223.69;;;18.88;64.97
15444;BME280;7822;48.146;11.576;2022-09-09T07:19:56;95236.53;;;18.83;65.13
15444;BME280;7822;48.146;11.576;2022-09-09T07:22:24;95260.69;;;18.78;65.37
15444;BME280;7822;48.146;11.576;2022-09-09T07:24:51;95281.31;;;18.59;66.32
15444;BME280;7822;48.146;11.576;2022-09-09T07:27:19;95265.38;;;18.60;66.65
15444;BME280;7822;48.146;11.576;2022-09-09T07:29:47;95257.16;;;18.63;66.01
15444;BME280;7822;48.146;11.576;2022-09-09T07:32:15;95266.28;;;18.75;66.51
15444;BME280;7822;48.146;11.576;2022-09-09T07:34:44;95266.81;;;18.71;66.77
15444;BME280;7822;48.146;11.576;2022-09-09T07:37:12;95263.66;;;18.75;67.34
15444;BME280;7822;48.146;11.576;2022-09-09T07:39:40;95263.00;;;18.81;66.50
15444;BME280;7822;48.146;11.576;2022-09-09T07:42:08;95273.47;;;18.89;66.46
15444;BME280;7822;48.146;11.576;2022-09-09T07:44:37;95270.44;;;19.00;66.23
15444;BME280;7822;48.146;11.576;2022-09-09T07:47:06;95281.09;;;19.07;66.07
15444;BME280;7822;48.146;11.576;2022-09-09T07:49:33;95283.72;;;19.07;66.22
15444;BME280;7822;48.146;11.576;2022-09-09T07:52:02;95279.16;;;19.01;66.07
15444;BME280;7822;48.146;11.576;2022-09-09T07:54:30;95279.94;;;19.01;65.68
15444;BME280;7822;48.146;11.576;2022-09-09T07:56:59;95289.31;;;19.04;65.80
15444;BME280;7822;48.146;11.576;2022-09-09T07:59:26;95283.53;;;19.08;65.92
15444;BME280;7822;48.146;11.576;2022-09-09T08:01:56;95295.00;;;19.15;65.90
15444;BME280;7822;48.146;11.576;2022-09-09T08:04:25;95283.50;;;19.16;65.65
15444;BME280;7822;48.146;11.576;2022-09-09T08:06:56;95285.59;;;19.21;65.60
15444;BME280;7822;48.146;11.576;2022-09-09T08:09:27;95279.47;;;19.29;65.39
15444;BME280;7822;48.146;11.576;2022-09-09T08:11:56;95279.28;;;19.30;65.05
15444;BME280;7822;48.146;11.576;2022-09-09T08:14:24;95283.06;;;19.36;65.30
15444;BME280;7822;48.146;11.576;2022-09-09T08:16:52;95297.06;;;19.36;65.09
15444;BME280;7822;48.146;11.576;2022-09-09T08:19:20;95296.00;;;19.45;64.70
15444;BME280;7822;48.146;11.576;2022-09-09T08:21:48;95308.81;;;19.48;64.57
15444;BME280;7822;48.146;11.576;2022-09-09T08:24:17;95313.59;;;19.45;64.50
15444;BME280;7822;48.146;11.576;2022-09-09T08:26:48;95311.94;;;19.44;64.03
15444;BME280;7822;48.146;11.576;2022-09-09T08:29:16;95311.13;;;19.43;64.51
15444;BME280;7822;48.146;11.576;2022-09-09T08:31:46;95307.63;;;19.51;64.10
15444;BME280;7822;48.146;11.576;2022-09-09T08:34:15;95306.81;;;19.50;64.15
15444;BME280;7822;48.146;11.576;2022-09-09T08:36:45;95316.69;;;19.48;64.28
15444;BME280;7822;48.146;11.576;2022-09-09T08:39:14;95313.84;;;19.58;63.74
15444;BME280;7822;48.146;11.576;2022-09-09T08:42:25;95323.25;;;19.75;63.65
15444;BME280;7822;48.146;11.576;2022-09-09T08:45:10;95317.31;;;19.58;63.88
15444;BME280;7822;48.146;11.576;2022-09-09T08:47:47;95320.78;;;19.51;64.30
15444;BME280;7822;48.146;11.576;2022-09-09T08:50:21;95328.06;;;19.71;64.13
15444;BME280;7822;48.146;11.576;2022-09-09T08:52:59;95322.56;;;19.58;63.80
15444;BME280;7822;48.146;11.576;2022-09-09T08:55:37;95324.41;;;19.50;64.02
15444;BME280;7822;48.146;11.576;2022-09-09T08:58:13;95321.25;;;19.77;64.46
15444;BME280;7822;48.146;11.576;2022-09-09T09:00:54;95320.91;;;19.80;64.62
15444;BME280;7822;48.146;11.576;2022-09-09T09:03:33;95310.38;;;19.57;64.38
15444;BME280;7822;48.146;11.576;2022-09-09T09:06:06;95320.50;;;19.68;65.31
15444;BME280;7822;48.146;11.576;2022-09-09T09:08:44;95317.41;;;19.65;64.96
15444;BME280;7822;48.146;11.576;2022-09-09T09:11:15;95314.66;;;19.58;65.14
15444;BME280;7822;48.146;11.576;2022-09-09T09:13:48;95308.41;;;19.59;67.12
15444;BME280;7822;48.146;11.576;2022-09-09T09:16:22;95315.66;;;19.57;66.79
15444;BME280;7822;48.146;11.576;2022-09-09T09:18:52;95304.28;;;19.57;67.33
15444;BME280;7822;48.146;11.576;2022-09-09T09:21:29;95301.03;;;19.77;65.66
15444;BME280;7822;48.146;11.576;2022-09-09T09:24:01;95307.28;;;19.76;64.98
15444;BME280;7822;48.146;11.576;2022-09-09T09:26:34;95312.72;;;19.98;63.55
15444;BME280;7822;48.146;11.576;2022-09-09T09:29:10;95314.97;;;20.01;63.26
15444;BME280;7822;48.146;11.576;2022-09-09T09:31:39;95313.38;;;20.14;61.34
15444;BME280;7822;48.146;11.576;2022-09-09T09:34:09;95313.03;;;20.17;60.50
15444;BME280;7822;48.146;11.576;2022-09-09T09:36:40;95325.56;;;20.15;60.42
15444;BME280;7822;48.146;11.576;2022-09-09T09:39:08;95320.88;;;20.03;59.97
15444;BME280;7822;48.146;11.576;2022-09-09T09:41:57;95324.97;;;20.05;60.28
15444;BME280;7822;48.146;11.576;2022-09-09T09:44:33;95320.22;;;20.01;60.88
15444;BME280;7822;48.146;11.576;2022-09-09T09:47:08;95320.66;;;19.89;61.11
15444;BME280;7822;48.146;11.576;2022-09-09T09:49:37;95322.66;;;19.87;61.17
15444;BME280;7822;48.146;11.576;2022-09-09T09:52:06;95313.69;;;19.96;61.60
15444;BME280;7822;48.146;11.576;2022-09-09T09:54:39;95324.44;;;20.10;61.58
15444;BME280;7822;48.146;11.576;2022-09-09T09:57:09;95323.59;;;20.09;62.32
15444;BME280;7822;48.146;11.576;2022-09-09T09:59:40;95325.56;;;20.15;61.88
15444;BME280;7822;48.146;11.576;2022-09-09T10:02:16;95324.28;;;20.11;61.89
15444;BME280;7822;48.146;11.576;2022-09-09T10:04:45;95330.00;;;20.15;62.82
15444;BME280;7822;48.146;11.576;2022-09-09T10:07:17;95331.50;;;20.09;64.18
15444;BME280;7822;48.146;11.576;2022-09-09T10:09:47;95322.19;;;20.07;64.47
15444;BME280;7822;48.146;11.576;2022-09-09T10:12:27;95323.28;;;19.89;63.72
15444;BME280;7822;48.146;11.576;2022-09-09T10:15:04;95319.56;;;19.84;64.11
15444;BME280;7822;48.146;11.576;2022-09-09T10:17:40;95313.03;;;19.80;64.46
15444;BME280;7822;48.146;11.576;2022-09-09T10:20:20;95316.47;;;19.80;64.14
15444;BME280;7822;48.146;11.576;2022-09-09T10:22:51;95324.72;;;19.77;63.58
15444;BME280;7822;48.146;11.576;2022-09-09T10:25:38;95319.03;;;19.66;63.08
15444;BME280;7822;48.146;11.576;2022-09-09T10:28:30;95320.47;;;19.54;64.15
15444;BME280;7822;48.146;11.576;2022-09-09T10:31:11;95324.78;;;19.47;64.84
15444;BME280;7822;48.146;11.576;2022-09-09T10:33:50;95320.03;;;19.42;65.08
15444;BME280;7822;48.146;11.576;2022-09-09T10:36:20;95325.47;;;19.33;65.41
15444;BME280;7822;48.146;11.576;2022-09-09T10:38:53;95320.22;;;19.41;65.20
15444;BME280;7822;48.146;11.576;2022-09-09T10:41:37;95319.81;;;19.52;65.12
15444;BME280;7822;48.146;11.576;2022-09-09T10:44:18;95330.22;;;19.45;65.64
15444;BME280;7822;48.146;11.576;2022-09-09T10:47:00;95330.69;;;19.49;65.87
15444;BME280;7822;48.146;11.576;2022-09-09T10:49:52;95332.25;;;19.58;66.05
15444;BME280;7822;48.146;11.576;2022-09-09T10:52:31;95330.63;;;19.57;65.72
15444;BME280;7822;48.146;11.576;2022-09-09T10:55:10;95324.69;;;19.63;65.21
15444;BME280;7822;48.146;11.576;2022-09-09T10:57:44;95334.00;;;19.65;64.61
15444;BME280;7822;48.146;11.576;2022-09-09T11:00:17;95323.22;;;19.60;63.62
15444;BME280;7822;48.146;11.576;2022-09-09T11:02:49;95325.00;;;19.60;63.81
15444;BME280;7822;48.146;11.576;2022-09-09T11:05:20;95317.63;;;19.55;62.89
15444;BME280;7822;48.146;11.576;2022-09-09T11:07:53;95322.56;;;19.58;62.85
15444;BME280;7822;48.146;11.576;2022-09-09T11:10:25;95326.50;;;19.54;62.63
15444;BME280;7822;48.146;11.576;2022-09-09T11:13:00;95319.56;;;19.61;62.61
15444;BME280;7822;48.146;11.576;2022-09-09T11:15:35;95319.78;;;19.74;62.85
15444;BME280;7822;48.146;11.576;2022-09-09T11:18:12;95318.28;;;19.80;62.18
15444;BME280;7822;48.146;11.576;2022-09-09T11:20:42;95321.03;;;19.86;62.48
15444;BME280;7822;48.146;11.576;2022-09-09T11:23:12;95321.47;;;19.90;62.16
15444;BME280;7822;48.146;11.576;2022-09-09T11:25:45;95324.13;;;19.90;61.95
15444;BME280;7822;48.146;11.576;2022-09-09T11:28:41;95324.59;;;19.93;61.96
15444;BME280;7822;48.146;11.576;2022-09-09T11:31:24;95319.75;;;19.82;62.35
15444;BME280;7822;48.146;11.576;2022-09-09T11:34:14;95315.13;;;19.84;61.83
15444;BME280;7822;48.146;11.576;2022-09-09T11:36:55;95321.25;;;19.77;62.10
15444;BME280;7822;48.146;11.576;2022-09-09T11:39:47;95317.03;;;19.90;61.83
15444;BME280;7822;48.146;11.576;2022-09-09T11:42:19;95320.22;;;20.01;60.82
15444;BME280;7822;48.146;11.576;2022-09-09T11:44:47;95312.34;;;20.01;60.14
15444;BME280;7822;48.146;11.576;2022-09-09T11:47:22;95309.16;;;20.05;60.24
15444;BME280;7822;48.146;11.576;2022-09-09T11:49:52;95316.53;;;20.10;59.52
15444;BME280;7822;48.146;11.576;2022-09-09T11:52:22;95312.81;;;20.04;59.78
15444;BME280;7822;48.146;11.576;2022-09-09T11:54:55;95306.81;;;20.10;60.00
15444;BME280;7822;48.146;11.576;2022-09-09T11:57:27;95312.34;;;20.01;59.82
15444;BME280;7822;48.146;11.576;2022-09-09T11:59:58;95311.69;;;19.98;60.43
15444;BME280;7822;48.146;11.576;2022-09-09T12:02:28;95311.16;;;20.03;60.54
15444;BME280;7822;48.146;11.576;2022-09-09T12:05:01;95317.34;;;19.95;60.37
15444;BME280;7822;48.146;11.576;2022-09-09T12:07:34;95314.16;;;20.00;60.23
15444;BME280;7822;48.146;11.576;2022-09-09T12:10:05;95317.97;;;19.98;59.91
15444;BME280;7822;48.146;11.576;2022-09-09T12:12:46;95317.25;;;20.04;59.54
15444;BME280;7822;48.146;11.576;2022-09-09T12:15:21;95322.53;;;20.04;59.56
15444;BME280;7822;48.146;11.576;2022-09-09T12:17:50;95302.91;;;20.06;59.45
15444;BME280;7822;48.146;11.576;2022-09-09T12:20:23;95311.56;;;20.15;59.12
15444;BME280;7822;48.146;11.576;2022-09-09T12:23:14;95312.38;;;20.15;58.83
15444;BME280;7822;48.146;11.576;2022-09-09T12:25:54;95304.06;;;20.26;58.84
15444;BME280;7822;48.146;11.576;2022-09-09T12:28:27;95301.78;;;20.38;58.82
15444;BME280;7822;48.146;11.576;2022-09-09T12:31:05;95297.34;;;20.38;58.51
15444;BME280;7822;48.146;11.576;2022-09-09T12:33:38;95303.88;;;20.42;58.12
15444;BME280;7822;48.146;11.576;2022-09-09T12:36:12;95299.97;;;20.38;58.14
15444;BME280;7822;48.146;11.576;2022-09-09T12:38:42;95296.72;;;20.36;58.66
15444;BME280;7822;48.146;11.576;2022-09-09T12:41:19;95292.66;;;20.48;58.57
15444;BME280;7822;48.146;11.576;2022-09-09T12:43:47;95288.16;;;20.49;58.56
15444;BME280;7822;48.146;11.576;2022-09-09T12:46:22;95291.81;;;20.48;58.28
15444;BME280;7822;48.146;11.576;2022-09-09T12:48:53;95286.34;;;20.49;58.28
15444;BME280;7822;48.146;11.576;2022-09-09T12:51:27;95284.81;;;20.55;58.61
15444;BME280;7822;48.146;11.576;2022-09-09T12:53:56;95283.81;;;20.56;58.58
15444;BME280;7822;48.146;11.576;2022-09-09T12:56:26;95281.66;;;20.59;58.57
15444;BME280;7822;48.146;11.576;2022-09-09T12:58:55;95274.81;;;20.65;58.59
15444;BME280;7822;48.146;11.576;2022-09-09T13:01:27;95277.16;;;20.60;58.55
15444;BME280;7822;48.146;11.576;2022-09-09T13:03:55;95273.34;;;20.62;58.49
15444;BME280;7822;48.146;11.576;2022-09-09T13:06:25;95280.63;;;20.60;58.21
15444;BME280;7822;48.146;11.576;2022-09-09T13:08:56;95272.44;;;20.55;58.57
15444;BME280;7822;48.146;11.576;2022-09-09T13:11:26;95269.56;;;20.50;58.83
15444;BME280;7822;48.146;11.576;2022-09-09T13:13:59;95267.75;;;20.51;59.24
15444;BME280;7822;48.146;11.576;2022-09-09T13:16:32;95268.19;;;20.54;59.08
15444;BME280;7822;48.146;11.576;2022-09-09T13:19:19;95257.44;;;20.56;59.51
15444;BME280;7822;48.146;11.576;2022-09-09T13:21:57;95256.47;;;20.57;59.49
15444;BME280;7822;48.146;11.576;2022-09-09T13:24:29;95256.91;;;20.60;59.43
15444;BME280;7822;48.146;11.576;2022-09-09T13:26:58;95249.38;;;20.43;59.84
15444;BME280;7822;48.146;11.576;2022-09-09T13:29:29;95244.00;;;20.36;60.15
15444;BME280;7822;48.146;11.576;2022-09-09T13:32:03;95247.66;;;20.35;60.05
15444;BME280;7822;48.146;11.576;2022-09-09T13:34:33;95248.28;;;20.37;60.28